Time;durP1;ratioP1;P1;durP2;ratioP2;P2;SDS_P1;SDS_P2;PMS_P1;PMS_P2;Temp;Humidity;BMP_temperature;BMP_pressure;BME280_temperature;BME280_humidity;BME280_pressure;Samples;Min_cycle;Max_cycle;Signal;HPM_P1;HPM_P2
2022/09/28 00:00:05;;;;;;;8.48;1.75;;;;;;;;;;5042363;28;20591;-72
2022/09/28 00:12:42;;;;;;;7.97;1.40;;;;;;;;;;5043051;28;20089;-72
2022/09/28 00:15:10;;;;;;;13.57;1.38;;;;;;;;;;5027546;28;20086;-74
2022/09/28 00:17:35;;;;;;;8.52;1.20;;;;;;;;;;5037329;28;20894;-73
2022/09/28 00:20:04;;;;;;;3.17;0.98;;;;;;;;;;5037616;28;20032;-74
2022/09/28 00:22:29;;;;;;;7.60;1.05;;;;;;;;;;5038552;28;20426;-72
2022/09/28 00:24:55;;;;;;;7.30;1.00;;;;;;;;;;5039034;28;20140;-72
2022/09/28 00:27:20;;;;;;;10.55;1.42;;;;;;;;;;5035823;28;20079;-73
2022/09/28 00:29:45;;;;;;;3.78;0.80;;;;;;;;;;5037783;28;20101;-73
2022/09/28 00:32:14;;;;;;;3.83;0.95;;;;;;;;;;5036502;28;20036;-74
2022/09/28 00:34:42;;;;;;;9.02;1.65;;;;;;;;;;5015713;28;20093;-72
2022/09/28 00:37:08;;;;;;;7.07;1.20;;;;;;;;;;5036081;28;20127;-72
2022/09/28 00:39:34;;;;;;;5.25;1.27;;;;;;;;;;5053507;28;20036;-71
2022/09/28 00:42:04;;;;;;;7.05;1.40;;;;;;;;;;5043256;28;20083;-72
2022/09/28 00:44:32;;;;;;;7.00;0.90;;;;;;;;;;5041392;28;22287;-72
2022/09/28 00:47:02;;;;;;;5.78;1.00;;;;;;;;;;5017658;28;20042;-73
2022/09/28 00:49:39;;;;;;;2.67;0.90;;;;;;;;;;5057741;28;20129;-69
2022/09/28 00:52:06;;;;;;;2.65;0.88;;;;;;;;;;5042614;28;20117;-73
2022/09/28 00:54:31;;;;;;;3.30;0.60;;;;;;;;;;5043063;28;20035;-70
2022/09/28 00:56:56;;;;;;;11.10;1.20;;;;;;;;;;5043438;28;20656;-73
2022/09/28 00:59:23;;;;;;;7.07;0.95;;;;;;;;;;5042217;28;20040;-72
2022/09/28 01:01:51;;;;;;;3.47;0.80;;;;;;;;;;5041861;28;20041;-72
2022/09/28 01:04:17;;;;;;;6.55;1.08;;;;;;;;;;5047850;28;20134;-72
2022/09/28 01:06:43;;;;;;;2.92;1.05;;;;;;;;;;5064310;28;20042;-72
2022/09/28 01:09:09;;;;;;;4.18;0.80;;;;;;;;;;5072632;28;20055;-72
2022/09/28 01:11:36;;;;;;;9.75;1.02;;;;;;;;;;5056342;28;20476;-74
2022/09/28 01:14:02;;;;;;;5.57;0.80;;;;;;;;;;5076601;28;20036;-72
2022/09/28 01:16:30;;;;;;;3.95;1.15;;;;;;;;;;5076020;28;20035;-72
2022/09/28 01:19:02;;;;;;;2.63;1.13;;;;;;;;;;5080309;28;20036;-72
2022/09/28 01:21:27;;;;;;;4.60;1.10;;;;;;;;;;5072451;28;20036;-73
2022/09/28 01:23:52;;;;;;;3.33;0.82;;;;;;;;;;5075784;28;20074;-73
2022/09/28 01:26:23;;;;;;;9.27;1.33;;;;;;;;;;5067801;28;20044;-74
2022/09/28 01:28:52;;;;;;;3.47;0.90;;;;;;;;;;5070838;28;20085;-72
2022/09/28 01:31:21;;;;;;;5.05;0.98;;;;;;;;;;5065695;28;20032;-74
2022/09/28 01:33:50;;;;;;;2.30;0.90;;;;;;;;;;5046527;28;20051;-74
2022/09/28 01:36:18;;;;;;;3.30;1.00;;;;;;;;;;5069749;28;20110;-73
2022/09/28 01:38:53;;;;;;;6.03;0.98;;;;;;;;;;5061978;28;20051;-72
2022/09/28 01:41:20;;;;;;;6.47;1.15;;;;;;;;;;5071102;28;20044;-72
2022/09/28 01:43:48;;;;;;;5.22;0.93;;;;;;;;;;5073375;28;20082;-70
2022/09/28 01:46:17;;;;;;;4.18;0.80;;;;;;;;;;5076732;28;20036;-73
2022/09/28 01:48:45;;;;;;;3.15;1.10;;;;;;;;;;5073786;28;20029;-73
2022/09/28 01:51:16;;;;;;;6.25;1.02;;;;;;;;;;5079415;28;20035;-73
2022/09/28 01:53:44;;;;;;;6.28;1.60;;;;;;;;;;5075195;28;20728;-72
2022/09/28 01:56:23;;;;;;;7.00;1.10;;;;;;;;;;5067257;28;20449;-72
2022/09/28 01:58:54;;;;;;;11.70;1.60;;;;;;;;;;5074510;28;20097;-74
2022/09/28 02:01:36;;;;;;;6.57;1.33;;;;;;;;;;5082619;28;20028;-76
2022/09/28 02:04:06;;;;;;;5.35;0.82;;;;;;;;;;5061197;28;20043;-75
2022/09/28 02:06:39;;;;;;;4.88;1.08;;;;;;;;;;5053913;28;20062;-76
2022/09/28 02:09:08;;;;;;;5.82;0.90;;;;;;;;;;5051855;28;20032;-74
2022/09/28 02:11:36;;;;;;;8.88;1.60;;;;;;;;;;5054298;28;20040;-74
2022/09/28 02:14:05;;;;;;;6.00;1.27;;;;;;;;;;5053275;28;20033;-75
2022/09/28 02:16:44;;;;;;;8.43;1.17;;;;;;;;;;5050564;28;20119;-74
2022/09/28 02:19:14;;;;;;;11.70;1.17;;;;;;;;;;5049010;28;20742;-74
2022/09/28 02:21:42;;;;;;;5.13;1.00;;;;;;;;;;5045683;28;22415;-75
2022/09/28 02:24:14;;;;;;;12.95;2.95;;;;;;;;;;5042728;28;20032;-73
2022/09/28 02:26:42;;;;;;;7.57;1.38;;;;;;;;;;5043539;28;20793;-72
2022/09/28 02:29:07;;;;;;;7.93;1.17;;;;;;;;;;5049006;28;20253;-73
2022/09/28 02:31:33;;;;;;;12.30;1.40;;;;;;;;;;5046798;28;20077;-74
2022/09/28 02:34:00;;;;;;;9.40;1.83;;;;;;;;;;5029155;28;20071;-73
2022/09/28 02:36:26;;;;;;;15.52;2.25;;;;;;;;;;5046766;28;20032;-74
2022/09/28 02:38:52;;;;;;;5.82;1.35;;;;;;;;;;5032695;28;20061;-74
2022/09/28 02:41:23;;;;;;;8.48;1.17;;;;;;;;;;5042450;28;20101;-73
2022/09/28 02:43:55;;;;;;;6.40;1.30;;;;;;;;;;5045305;28;20905;-73
2022/09/28 02:46:39;;;;;;;14.27;1.50;;;;;;;;;;5052929;28;20044;-75
2022/09/28 02:49:16;;;;;;;9.13;1.42;;;;;;;;;;5047329;28;20036;-74
2022/09/28 02:51:44;;;;;;;11.73;1.30;;;;;;;;;;5050520;28;20035;-74
2022/09/28 02:54:28;;;;;;;6.85;1.38;;;;;;;;;;5055667;28;20024;-72
2022/09/28 02:56:53;;;;;;;7.95;1.30;;;;;;;;;;5057837;28;20035;-72
2022/09/28 02:59:28;;;;;;;4.60;0.98;;;;;;;;;;5056903;28;20038;-74
2022/09/28 03:02:05;;;;;;;5.45;1.10;;;;;;;;;;5059496;28;20040;-74
2022/09/28 03:04:47;;;;;;;7.30;1.08;;;;;;;;;;5052225;28;20031;-73
2022/09/28 03:07:19;;;;;;;8.48;1.08;;;;;;;;;;5062160;28;20031;-71
2022/09/28 03:09:55;;;;;;;3.58;1.08;;;;;;;;;;5053417;28;20032;-72
2022/09/28 03:12:22;;;;;;;5.68;1.08;;;;;;;;;;5052602;28;20035;-72
2022/09/28 03:14:47;;;;;;;6.30;0.95;;;;;;;;;;5050451;28;20040;-71
2022/09/28 03:17:12;;;;;;;3.85;1.00;;;;;;;;;;5045518;28;20083;-72
2022/09/28 03:19:38;;;;;;;7.45;1.10;;;;;;;;;;5048335;28;20032;-72
2022/09/28 03:22:04;;;;;;;7.88;1.40;;;;;;;;;;5043949;28;20036;-73
2022/09/28 03:24:29;;;;;;;7.97;1.40;;;;;;;;;;5017439;28;20090;-72
2022/09/28 03:26:54;;;;;;;8.70;1.20;;;;;;;;;;5031268;28;20036;-73
2022/09/28 03:29:20;;;;;;;7.28;1.20;;;;;;;;;;5050240;28;20024;-73
2022/09/28 03:31:46;;;;;;;10.18;1.13;;;;;;;;;;5046932;28;20040;-73
2022/09/28 03:34:11;;;;;;;5.68;1.13;;;;;;;;;;5045602;28;20048;-74
2022/09/28 03:36:37;;;;;;;7.38;0.90;;;;;;;;;;5046552;28;20033;-74
2022/09/28 03:39:03;;;;;;;8.90;1.00;;;;;;;;;;5049864;28;20028;-73
2022/09/28 03:41:30;;;;;;;2.97;0.90;;;;;;;;;;5016672;28;20137;-72
2022/09/28 03:43:55;;;;;;;4.40;1.38;;;;;;;;;;5048278;28;20041;-73
2022/09/28 03:46:21;;;;;;;6.18;0.95;;;;;;;;;;5047449;28;20082;-73
2022/09/28 03:48:46;;;;;;;5.10;1.00;;;;;;;;;;5024010;28;20035;-72
2022/09/28 03:51:11;;;;;;;5.15;1.38;;;;;;;;;;5049168;28;20028;-71
2022/09/28 03:53:37;;;;;;;9.35;1.20;;;;;;;;;;5048165;28;20099;-73
2022/09/28 03:56:06;;;;;;;12.13;1.85;;;;;;;;;;5050411;28;20040;-73
2022/09/28 03:58:33;;;;;;;12.75;1.50;;;;;;;;;;5042618;28;20844;-73
2022/09/28 04:01:03;;;;;;;16.75;2.25;;;;;;;;;;5043206;28;20093;-73
2022/09/28 04:03:29;;;;;;;15.48;2.10;;;;;;;;;;5042928;28;20144;-73
2022/09/28 04:05:54;;;;;;;12.93;2.00;;;;;;;;;;5042038;28;20032;-72
2022/09/28 04:08:19;;;;;;;19.80;2.10;;;;;;;;;;5033910;28;20057;-72
2022/09/28 04:10:45;;;;;;;8.30;1.55;;;;;;;;;;5044004;28;20040;-72
2022/09/28 04:13:10;;;;;;;5.95;1.10;;;;;;;;;;5044988;28;20036;-72
2022/09/28 04:15:37;;;;;;;10.07;1.40;;;;;;;;;;5044503;28;20042;-72
2022/09/28 04:18:02;;;;;;;9.98;1.92;;;;;;;;;;5042936;28;20037;-73
2022/09/28 04:20:28;;;;;;;11.63;1.30;;;;;;;;;;5043503;28;20157;-71
2022/09/28 04:22:54;;;;;;;6.75;1.30;;;;;;;;;;5034492;28;20040;-72
2022/09/28 04:25:19;;;;;;;5.90;1.42;;;;;;;;;;5044812;28;20046;-72
2022/09/28 04:30:30;;;;;;;6.55;1.55;;;;;;;;;;5044050;28;20044;-72
2022/09/28 04:32:55;;;;;;;3.47;1.17;;;;;;;;;;5042328;28;20040;-72
2022/09/28 04:35:21;;;;;;;4.60;1.15;;;;;;;;;;5042911;28;20245;-73
2022/09/28 04:37:46;;;;;;;8.05;1.33;;;;;;;;;;5030398;28;22236;-72
2022/09/28 04:40:14;;;;;;;11.82;1.70;;;;;;;;;;5046856;28;20033;-73
2022/09/28 04:42:42;;;;;;;17.25;1.80;;;;;;;;;;5072394;28;20044;-72
2022/09/28 04:45:09;;;;;;;10.23;1.98;;;;;;;;;;5049123;28;20079;-74
2022/09/28 04:47:35;;;;;;;11.20;2.00;;;;;;;;;;5071816;28;20404;-74
2022/09/28 04:50:00;;;;;;;9.40;1.33;;;;;;;;;;5079547;28;20086;-73
2022/09/28 04:52:26;;;;;;;4.72;1.20;;;;;;;;;;5064717;28;20100;-73
2022/09/28 04:54:51;;;;;;;5.97;1.10;;;;;;;;;;5087042;28;20043;-74
2022/09/28 04:57:16;;;;;;;7.18;1.40;;;;;;;;;;5060136;28;20044;-73
2022/09/28 04:59:42;;;;;;;8.32;1.77;;;;;;;;;;5062546;28;20036;-74
2022/09/28 05:02:07;;;;;;;9.80;1.35;;;;;;;;;;5055066;28;20040;-75
2022/09/28 05:04:33;;;;;;;6.20;1.02;;;;;;;;;;5056225;28;20043;-74
2022/09/28 05:07:00;;;;;;;2.95;1.02;;;;;;;;;;5036714;28;20041;-73
2022/09/28 05:09:25;;;;;;;8.85;1.00;;;;;;;;;;5046097;28;20040;-74
2022/09/28 05:11:51;;;;;;;8.75;1.70;;;;;;;;;;5047754;28;20059;-73
2022/09/28 05:14:23;;;;;;;5.60;1.58;;;;;;;;;;5049101;28;20043;-74
2022/09/28 05:16:51;;;;;;;9.68;2.20;;;;;;;;;;5059958;28;20493;-74
2022/09/28 05:19:16;;;;;;;9.63;2.00;;;;;;;;;;5064680;28;20155;-73
2022/09/28 05:21:47;;;;;;;6.10;1.88;;;;;;;;;;5065145;28;20031;-73
2022/09/28 05:24:13;;;;;;;6.18;1.85;;;;;;;;;;5069179;28;20059;-70
2022/09/28 05:26:38;;;;;;;9.05;2.00;;;;;;;;;;5074417;28;20048;-71
2022/09/28 05:29:06;;;;;;;4.10;1.75;;;;;;;;;;5064769;28;20115;-72
2022/09/28 05:31:31;;;;;;;5.72;1.90;;;;;;;;;;5068603;28;20029;-71
2022/09/28 05:34:01;;;;;;;4.82;1.58;;;;;;;;;;5069315;28;20469;-72
2022/09/28 05:36:26;;;;;;;5.72;1.63;;;;;;;;;;5067629;28;20021;-73
2022/09/28 05:38:52;;;;;;;4.50;1.55;;;;;;;;;;5068910;28;20044;-72
2022/09/28 05:41:18;;;;;;;3.08;1.20;;;;;;;;;;5069106;28;20497;-72
2022/09/28 05:43:44;;;;;;;5.80;1.30;;;;;;;;;;5068087;28;20028;-73
2022/09/28 05:46:12;;;;;;;4.88;1.42;;;;;;;;;;5070233;28;20056;-73
2022/09/28 05:48:39;;;;;;;9.43;2.05;;;;;;;;;;5070337;28;20025;-72
2022/09/28 05:51:05;;;;;;;5.90;1.80;;;;;;;;;;5070144;28;20403;-72
2022/09/28 05:53:30;;;;;;;4.65;1.33;;;;;;;;;;5070902;28;20031;-73
2022/09/28 05:55:56;;;;;;;5.35;1.50;;;;;;;;;;5071750;28;20028;-72
2022/09/28 05:58:22;;;;;;;3.25;1.25;;;;;;;;;;5070249;28;20041;-73
2022/09/28 06:00:52;;;;;;;4.70;1.60;;;;;;;;;;5073412;28;20111;-72
2022/09/28 06:03:20;;;;;;;5.35;1.30;;;;;;;;;;5072102;28;20031;-73
2022/09/28 06:05:52;;;;;;;4.63;1.25;;;;;;;;;;5071291;28;20029;-72
2022/09/28 06:08:19;;;;;;;4.50;1.30;;;;;;;;;;5054741;28;20037;-71
2022/09/28 06:10:45;;;;;;;4.13;1.70;;;;;;;;;;5055515;28;20032;-73
2022/09/28 06:13:10;;;;;;;7.88;1.90;;;;;;;;;;5070980;28;20033;-74
2022/09/28 06:15:36;;;;;;;6.72;1.98;;;;;;;;;;5069774;28;20035;-72
2022/09/28 06:18:19;;;;;;;7.80;2.72;;;;;;;;;;5079079;28;20116;-72
2022/09/28 06:20:47;;;;;;;8.75;2.50;;;;;;;;;;5089693;28;20052;-72
2022/09/28 06:23:13;;;;;;;6.82;2.45;;;;;;;;;;5090260;28;20414;-72
2022/09/28 06:25:39;;;;;;;8.75;2.47;;;;;;;;;;5089237;28;20035;-73
2022/09/28 06:28:11;;;;;;;7.88;2.30;;;;;;;;;;5089423;28;20030;-72
2022/09/28 06:30:39;;;;;;;4.93;2.40;;;;;;;;;;5080206;28;20024;-71
2022/09/28 06:33:05;;;;;;;6.20;2.65;;;;;;;;;;5070329;28;20024;-73
2022/09/28 06:35:31;;;;;;;7.22;3.35;;;;;;;;;;5090393;28;20120;-72
2022/09/28 06:37:59;;;;;;;8.35;3.80;;;;;;;;;;5088847;28;20119;-73
2022/09/28 06:40:25;;;;;;;11.07;3.30;;;;;;;;;;5088062;28;20499;-73
2022/09/28 06:43:08;;;;;;;6.70;3.65;;;;;;;;;;5071877;28;20477;-72
2022/09/28 06:45:36;;;;;;;9.32;3.80;;;;;;;;;;5088330;28;20028;-73
2022/09/28 06:48:02;;;;;;;10.32;3.83;;;;;;;;;;5091685;28;20046;-74
2022/09/28 06:50:31;;;;;;;5.38;3.40;;;;;;;;;;5090713;28;20028;-71
2022/09/28 06:52:56;;;;;;;7.60;3.17;;;;;;;;;;5089251;28;20036;-73
2022/09/28 06:55:22;;;;;;;6.65;3.15;;;;;;;;;;5088952;28;20028;-71
2022/09/28 06:57:56;;;;;;;7.30;3.17;;;;;;;;;;5089049;28;20397;-72
2022/09/28 07:00:21;;;;;;;8.45;3.72;;;;;;;;;;5087542;28;20036;-71
2022/09/28 07:02:46;;;;;;;10.57;3.00;;;;;;;;;;5089732;28;20036;-72
2022/09/28 07:05:12;;;;;;;5.55;2.67;;;;;;;;;;5088483;28;20085;-72
2022/09/28 07:07:39;;;;;;;3.78;2.15;;;;;;;;;;5088666;28;20526;-71
2022/09/28 07:10:04;;;;;;;2.70;1.80;;;;;;;;;;5088476;28;20028;-72
2022/09/28 07:12:31;;;;;;;5.90;1.95;;;;;;;;;;5087808;28;20031;-71
2022/09/28 07:14:56;;;;;;;7.45;2.05;;;;;;;;;;5087708;28;20032;-71
2022/09/28 07:17:22;;;;;;;3.42;1.38;;;;;;;;;;5088561;28;20032;-71
2022/09/28 07:19:51;;;;;;;4.38;1.90;;;;;;;;;;5086413;28;20465;-71
2022/09/28 07:22:19;;;;;;;4.80;1.95;;;;;;;;;;5086163;28;20111;-71
2022/09/28 07:24:49;;;;;;;2.25;1.17;;;;;;;;;;5080935;28;20036;-72
2022/09/28 07:27:15;;;;;;;5.10;2.60;;;;;;;;;;5064152;28;20044;-75
2022/09/28 07:29:40;;;;;;;5.68;2.20;;;;;;;;;;5075793;28;20047;-72
2022/09/28 07:32:08;;;;;;;4.13;1.20;;;;;;;;;;5069299;28;20028;-72
2022/09/28 07:34:40;;;;;;;11.30;1.55;;;;;;;;;;5067661;28;20032;-70
2022/09/28 07:37:05;;;;;;;5.93;0.80;;;;;;;;;;5086612;28;20024;-70
2022/09/28 07:39:31;;;;;;;6.82;0.90;;;;;;;;;;5086853;28;20051;-71
2022/09/28 07:41:56;;;;;;;4.18;1.05;;;;;;;;;;5086690;28;20379;-71
2022/09/28 07:44:21;;;;;;;7.13;1.33;;;;;;;;;;5057832;28;20093;-74
2022/09/28 07:46:47;;;;;;;3.70;0.70;;;;;;;;;;5064652;28;20118;-71
2022/09/28 07:49:14;;;;;;;4.90;0.82;;;;;;;;;;5084367;28;20101;-71
2022/09/28 07:51:43;;;;;;;8.25;1.13;;;;;;;;;;5085510;28;20177;-70
2022/09/28 07:54:08;;;;;;;9.43;0.95;;;;;;;;;;5065988;28;20058;-71
2022/09/28 07:56:34;;;;;;;7.90;1.25;;;;;;;;;;5076052;28;20028;-71
2022/09/28 07:58:59;;;;;;;2.25;0.68;;;;;;;;;;5085942;28;20039;-71
2022/09/28 08:01:24;;;;;;;5.47;0.70;;;;;;;;;;5064456;28;20481;-72
2022/09/28 08:03:50;;;;;;;5.15;1.77;;;;;;;;;;5071162;28;20043;-71
2022/09/28 08:06:17;;;;;;;12.25;2.50;;;;;;;;;;5069604;28;20031;-71
2022/09/28 08:08:43;;;;;;;13.70;2.40;;;;;;;;;;5082391;28;20507;-70
2022/09/28 08:11:10;;;;;;;8.60;1.38;;;;;;;;;;5082228;28;20024;-72
2022/09/28 08:13:36;;;;;;;7.18;1.20;;;;;;;;;;5074751;28;20051;-67
2022/09/28 08:16:07;;;;;;;10.77;1.60;;;;;;;;;;5057031;28;20528;-71
2022/09/28 08:18:33;;;;;;;12.15;1.58;;;;;;;;;;5042183;28;20360;-72
2022/09/28 08:23:45;;;;;;;5.72;1.13;;;;;;;;;;5067001;28;20035;-70
2022/09/28 08:26:11;;;;;;;5.45;1.13;;;;;;;;;;5067710;28;20474;-70
2022/09/28 08:28:36;;;;;;;9.13;1.00;;;;;;;;;;5047532;28;20043;-72
2022/09/28 08:31:01;;;;;;;6.65;0.77;;;;;;;;;;5069000;28;20480;-71
2022/09/28 08:33:27;;;;;;;5.60;0.90;;;;;;;;;;5060165;28;20038;-71
2022/09/28 08:35:56;;;;;;;9.52;1.70;;;;;;;;;;5070122;28;20646;-71
2022/09/28 08:38:24;;;;;;;;;;;;;;;;;;5068631;28;20071;-73
2022/09/28 08:41:25;;;;;;;6.73;1.53;;;;;;;;;;5065887;28;20007;-73
2022/09/28 08:44:06;;;;;;;5.40;1.00;;;;;;;;;;5010485;28;20406;-74
2022/09/28 08:46:39;;;;;;;4.32;0.70;;;;;;;;;;5051287;28;20055;-74
2022/09/28 08:49:09;;;;;;;4.63;0.52;;;;;;;;;;5069409;28;20173;-73
2022/09/28 08:51:41;;;;;;;1.55;0.32;;;;;;;;;;5042240;28;20136;-75
2022/09/28 08:54:06;;;;;;;;;;;;;;;;;;5062817;28;20036;-74
2022/09/28 08:56:42;;;;;;;3.35;0.60;;;;;;;;;;5059161;28;19934;-74
2022/09/28 08:59:13;;;;;;;3.05;0.60;;;;;;;;;;5060358;28;20036;-73
2022/09/28 09:01:49;;;;;;;4.93;0.60;;;;;;;;;;5057128;28;20063;-74
2022/09/28 09:04:14;;;;;;;1.75;0.52;;;;;;;;;;5037990;28;20093;-75
2022/09/28 09:06:49;;;;;;;1.20;0.60;;;;;;;;;;5043392;28;20857;-73
2022/09/28 09:09:23;;;;;;;3.03;0.80;;;;;;;;;;5039524;28;20167;-74
2022/09/28 09:11:49;;;;;;;3.60;0.70;;;;;;;;;;5044648;28;20150;-74
2022/09/28 09:14:26;;;;;;;1.30;0.47;;;;;;;;;;5039133;28;20055;-73
2022/09/28 09:17:11;;;;;;;3.05;0.60;;;;;;;;;;5046802;28;20116;-74
2022/09/28 09:19:50;;;;;;;2.47;0.50;;;;;;;;;;5047022;28;20028;-75
2022/09/28 09:22:27;;;;;;;2.00;0.40;;;;;;;;;;5045231;28;20584;-74
2022/09/28 09:25:01;;;;;;;5.22;0.70;;;;;;;;;;5043265;28;20718;-74
2022/09/28 09:27:37;;;;;;;4.68;0.30;;;;;;;;;;5039901;28;20052;-74
2022/09/28 09:30:17;;;;;;;5.45;0.90;;;;;;;;;;5015240;28;20039;-74
2022/09/28 09:32:52;;;;;;;6.60;1.88;;;;;;;;;;5040278;28;20099;-75
2022/09/28 09:35:36;;;;;;;1.08;0.40;;;;;;;;;;5040007;28;20024;-75
2022/09/28 09:38:23;;;;;;;4.95;0.70;;;;;;;;;;5039668;28;20507;-74
2022/09/28 09:40:56;;;;;;;4.05;0.60;;;;;;;;;;5038740;28;20044;-75
2022/09/28 09:43:31;;;;;;;2.55;0.55;;;;;;;;;;5041353;28;20455;-74
2022/09/28 09:46:03;;;;;;;2.50;0.68;;;;;;;;;;5039370;28;20143;-73
2022/09/28 09:48:28;;;;;;;;;;;;;;;;;;5039561;28;20358;-74
2022/09/28 09:50:58;;;;;;;3.05;0.47;;;;;;;;;;5039122;28;20762;-74
2022/09/28 09:53:27;;;;;;;1.70;0.47;;;;;;;;;;5039435;28;20040;-74
2022/09/28 09:56:01;;;;;;;2.80;0.60;;;;;;;;;;5038564;28;20862;-74
2022/09/28 09:58:34;;;;;;;1.90;0.40;;;;;;;;;;5036456;28;20044;-75
2022/09/28 10:01:13;;;;;;;2.95;0.80;;;;;;;;;;5038838;28;20043;-74
2022/09/28 10:03:43;;;;;;;1.98;0.50;;;;;;;;;;5037971;28;20516;-76
2022/09/28 10:06:11;;;;;;;2.90;0.60;;;;;;;;;;5037455;28;20167;-73
2022/09/28 10:08:39;;;;;;;2.38;0.50;;;;;;;;;;5037686;28;21055;-74
2022/09/28 10:11:11;;;;;;;7.32;0.85;;;;;;;;;;5037212;28;20043;-75
2022/09/28 10:13:37;;;;;;;;;;;;;;;;;;5037611;28;20595;-75
2022/09/28 10:16:04;;;;;;;4.15;0.50;;;;;;;;;;5037636;28;19916;-74
2022/09/28 10:18:29;;;;;;;2.50;0.50;;;;;;;;;;5037277;28;20618;-74
2022/09/28 10:20:54;;;;;;;1.75;0.35;;;;;;;;;;5035322;28;20210;-74
2022/09/28 10:23:22;;;;;;;0.98;0.30;;;;;;;;;;5035844;28;20033;-73
2022/09/28 10:25:50;;;;;;;3.58;0.50;;;;;;;;;;5039097;28;20580;-73
2022/09/28 10:28:18;;;;;;;3.10;0.35;;;;;;;;;;5044034;28;20035;-74
2022/09/28 10:30:43;;;;;;;3.15;0.60;;;;;;;;;;5047447;28;20234;-75
2022/09/28 10:33:28;;;;;;;2.05;0.47;;;;;;;;;;5049860;28;20041;-75
2022/09/28 10:35:53;;;;;;;1.63;0.50;;;;;;;;;;5044267;28;20833;-75
2022/09/28 10:38:19;;;;;;;4.20;1.50;;;;;;;;;;5049408;28;20082;-73
2022/09/28 10:40:45;;;;;;;3.38;1.33;;;;;;;;;;5044440;28;20566;-74
2022/09/28 10:43:19;;;;;;;3.30;1.63;;;;;;;;;;5046049;28;20043;-74
2022/09/28 10:45:45;;;;;;;5.78;0.90;;;;;;;;;;5040761;28;20032;-73
2022/09/28 10:48:21;;;;;;;3.05;0.70;;;;;;;;;;5047133;28;20036;-76
2022/09/28 10:51:01;;;;;;;2.58;0.73;;;;;;;;;;5040083;28;20910;-69
2022/09/28 10:53:29;;;;;;;2.15;0.70;;;;;;;;;;5036289;28;20089;-70
2022/09/28 10:55:56;;;;;;;2.67;0.65;;;;;;;;;;5036189;28;20809;-69
2022/09/28 10:58:26;;;;;;;2.45;0.50;;;;;;;;;;5039036;28;20048;-70
2022/09/28 11:00:58;;;;;;;6.13;0.50;;;;;;;;;;5038617;28;20044;-71
2022/09/28 11:03:25;;;;;;;3.78;0.88;;;;;;;;;;5039516;28;20489;-71
2022/09/28 11:06:09;;;;;;;1.63;0.40;;;;;;;;;;5034144;28;20059;-69
2022/09/28 11:08:37;;;;;;;3.20;0.40;;;;;;;;;;5043059;28;20086;-77
2022/09/28 11:11:02;;;;;;;3.53;0.40;;;;;;;;;;5040682;28;20059;-76
2022/09/28 11:13:36;;;;;;;4.55;0.60;;;;;;;;;;5048404;28;20029;-74
2022/09/28 11:16:01;;;;;;;1.38;0.40;;;;;;;;;;5045326;28;20036;-69
2022/09/28 11:18:30;;;;;;;3.00;0.50;;;;;;;;;;5039359;28;20071;-69
2022/09/28 11:21:13;;;;;;;4.70;0.60;;;;;;;;;;5039877;28;21204;-75
2022/09/28 11:23:39;;;;;;;4.63;0.50;;;;;;;;;;5041898;28;21004;-71
2022/09/28 11:26:05;;;;;;;1.92;0.52;;;;;;;;;;5039337;28;20162;-71
2022/09/28 11:28:33;;;;;;;5.50;0.50;;;;;;;;;;5038694;28;20028;-72
2022/09/28 11:31:01;;;;;;;0.90;0.38;;;;;;;;;;5034850;28;20036;-71
2022/09/28 11:33:32;;;;;;;1.00;0.30;;;;;;;;;;5048678;28;20047;-71
2022/09/28 11:36:04;;;;;;;3.80;0.57;;;;;;;;;;5062931;28;20036;-72
2022/09/28 11:38:32;;;;;;;2.58;0.70;;;;;;;;;;5062975;28;20055;-69
2022/09/28 11:41:01;;;;;;;5.28;0.90;;;;;;;;;;5059211;28;20056;-71
2022/09/28 11:43:42;;;;;;;4.22;0.57;;;;;;;;;;5045172;28;20060;-71
2022/09/28 11:46:07;;;;;;;4.07;0.50;;;;;;;;;;5044436;28;20049;-71
2022/09/28 11:48:38;;;;;;;2.63;0.40;;;;;;;;;;5041244;28;20041;-70
2022/09/28 11:51:08;;;;;;;1.85;0.35;;;;;;;;;;5038540;28;20133;-70
2022/09/28 11:53:33;;;;;;;1.67;0.40;;;;;;;;;;5054789;28;20500;-70
2022/09/28 11:56:04;;;;;;;6.13;0.90;;;;;;;;;;5041993;28;20036;-70
2022/09/28 11:58:33;;;;;;;1.60;0.60;;;;;;;;;;5046282;28;20070;-71
2022/09/28 12:01:24;;;;;;;4.80;0.60;;;;;;;;;;5043443;28;20041;-71
2022/09/28 12:03:54;;;;;;;2.42;0.50;;;;;;;;;;5039357;28;20334;-69
2022/09/28 12:06:22;;;;;;;1.67;0.47;;;;;;;;;;5051443;28;20438;-69
2022/09/28 12:08:52;;;;;;;2.83;0.45;;;;;;;;;;5045374;28;20041;-72
2022/09/28 12:11:31;;;;;;;2.50;0.50;;;;;;;;;;5039202;28;20767;-70
2022/09/28 12:13:57;;;;;;;4.63;0.50;;;;;;;;;;5039436;28;20079;-71
2022/09/28 12:16:31;;;;;;;3.15;0.50;;;;;;;;;;5046706;28;20036;-71
2022/09/28 12:19:15;;;;;;;4.90;0.68;;;;;;;;;;5040504;28;20190;-72
2022/09/28 12:21:51;;;;;;;2.95;0.35;;;;;;;;;;5036500;28;20075;-71
2022/09/28 12:24:27;;;;;;;3.88;0.47;;;;;;;;;;5037515;28;20032;-71
2022/09/28 12:27:03;;;;;;;4.57;0.70;;;;;;;;;;5036628;28;20037;-71
2022/09/28 12:29:33;;;;;;;2.30;0.40;;;;;;;;;;5040669;28;20128;-71
2022/09/28 12:32:10;;;;;;;2.42;0.60;;;;;;;;;;5039377;28;20033;-70
2022/09/28 12:34:35;;;;;;;6.25;0.75;;;;;;;;;;5037620;28;20037;-70
2022/09/28 12:37:40;;;;;;;3.15;0.50;;;;;;;;;;5037492;28;21044;-70
2022/09/28 12:40:16;;;;;;;3.75;0.60;;;;;;;;;;4988332;28;20038;-69
2022/09/28 12:43:00;;;;;;;1.67;0.50;;;;;;;;;;5003609;28;20041;-70
2022/09/28 12:45:56;;;;;;;3.17;0.73;;;;;;;;;;4992730;28;20120;-71
2022/09/28 12:48:40;;;;;;;4.65;0.60;;;;;;;;;;5015618;28;20022;-72
2022/09/28 12:51:05;;;;;;;1.67;0.40;;;;;;;;;;5013667;28;20109;-71
2022/09/28 12:53:37;;;;;;;2.85;0.57;;;;;;;;;;5015913;28;20040;-70
2022/09/28 12:56:09;;;;;;;3.65;0.52;;;;;;;;;;5014552;28;20060;-71
2022/09/28 12:58:47;;;;;;;2.53;0.47;;;;;;;;;;5008695;28;20182;-71
2022/09/28 13:01:24;;;;;;;3.97;0.55;;;;;;;;;;5009496;28;20044;-70
2022/09/28 13:04:08;;;;;;;5.13;0.68;;;;;;;;;;5015665;28;20346;-72
2022/09/28 13:06:51;;;;;;;4.60;0.57;;;;;;;;;;5002328;28;20033;-73
2022/09/28 13:09:20;;;;;;;1.92;0.50;;;;;;;;;;4990670;28;20063;-73
2022/09/28 13:11:54;;;;;;;2.35;0.50;;;;;;;;;;5021356;28;20120;-72
2022/09/28 13:14:42;;;;;;;2.80;0.40;;;;;;;;;;4994490;28;21033;-71
2022/09/28 13:17:27;;;;;;;1.45;0.50;;;;;;;;;;4990567;28;20142;-72
2022/09/28 13:20:12;;;;;;;6.90;1.00;;;;;;;;;;4990607;28;20033;-72
2022/09/28 13:23:01;;;;;;;5.20;0.63;;;;;;;;;;4990334;28;20589;-71
2022/09/28 13:25:30;;;;;;;4.18;0.50;;;;;;;;;;5010177;28;20029;-73
2022/09/28 13:28:01;;;;;;;2.45;0.50;;;;;;;;;;4984577;28;20025;-72
2022/09/28 13:30:26;;;;;;;3.92;1.00;;;;;;;;;;4994401;28;20403;-71
2022/09/28 13:32:55;;;;;;;6.47;0.85;;;;;;;;;;5023484;28;20113;-72
2022/09/28 13:35:20;;;;;;;6.38;0.80;;;;;;;;;;4993410;28;20093;-72
2022/09/28 13:37:46;;;;;;;2.63;0.80;;;;;;;;;;5021829;28;20623;-73
2022/09/28 13:40:17;;;;;;;0.90;0.40;;;;;;;;;;4995575;28;20280;-72
2022/09/28 13:42:51;;;;;;;4.32;0.65;;;;;;;;;;5050741;28;20753;-73
2022/09/28 13:45:20;;;;;;;1.63;0.30;;;;;;;;;;5038270;28;20560;-73
2022/09/28 13:47:48;;;;;;;4.47;0.60;;;;;;;;;;5036481;28;20040;-72
2022/09/28 13:50:33;;;;;;;3.53;0.60;;;;;;;;;;5039475;28;20540;-74
2022/09/28 13:52:58;;;;;;;3.08;0.57;;;;;;;;;;5040977;28;20044;-73
2022/09/28 13:55:30;;;;;;;5.28;0.50;;;;;;;;;;5041078;28;20204;-73
2022/09/28 13:58:04;;;;;;;4.72;0.75;;;;;;;;;;5026910;28;20093;-73
2022/09/28 14:00:29;;;;;;;4.93;0.70;;;;;;;;;;5041022;28;20040;-71
2022/09/28 14:03:12;;;;;;;2.58;0.45;;;;;;;;;;5040622;28;20754;-72
2022/09/28 14:05:40;;;;;;;1.20;0.60;;;;;;;;;;5039695;28;20032;-74
2022/09/28 14:08:18;;;;;;;3.28;0.60;;;;;;;;;;5022659;28;20043;-73
2022/09/28 14:10:51;;;;;;;5.15;0.60;;;;;;;;;;5055255;28;20797;-73
2022/09/28 14:13:37;;;;;;;3.70;0.50;;;;;;;;;;5041048;28;21095;-74
2022/09/28 14:16:17;;;;;;;4.32;0.60;;;;;;;;;;5040697;28;20245;-73
2022/09/28 14:19:09;;;;;;;2.88;0.50;;;;;;;;;;5041022;28;20138;-74
2022/09/28 14:21:53;;;;;;;2.63;0.50;;;;;;;;;;5034007;28;20033;-73
2022/09/28 14:24:29;;;;;;;5.18;0.70;;;;;;;;;;5041504;28;20792;-73
2022/09/28 14:27:01;;;;;;;3.97;0.65;;;;;;;;;;5031278;28;20036;-73
2022/09/28 14:29:27;;;;;;;2.92;0.65;;;;;;;;;;5038705;28;20044;-71
2022/09/28 14:31:53;;;;;;;3.40;0.52;;;;;;;;;;5039823;28;21864;-71
2022/09/28 14:34:23;;;;;;;6.15;0.90;;;;;;;;;;5040660;28;22543;-71
2022/09/28 14:42:23;;;;;;;2.78;0.77;;;;;;;;;;5038609;28;20041;-73
2022/09/28 14:45:00;;;;;;;5.70;0.70;;;;;;;;;;5054566;28;20043;-74
2022/09/28 14:47:55;;;;;;;3.67;0.55;;;;;;;;;;5035584;28;20747;-73
2022/09/28 14:50:27;;;;;;;3.72;0.47;;;;;;;;;;4951089;28;20117;-74
2022/09/28 14:52:54;;;;;;;2.42;0.70;;;;;;;;;;5051012;28;20067;-73
2022/09/28 14:55:26;;;;;;;7.95;0.85;;;;;;;;;;5035390;28;20044;-73
2022/09/28 14:57:54;;;;;;;5.20;0.60;;;;;;;;;;5017524;28;20048;-75
2022/09/28 15:00:23;;;;;;;4.35;0.52;;;;;;;;;;5035413;28;20033;-73
2022/09/28 15:02:51;;;;;;;8.63;0.80;;;;;;;;;;5033195;28;20617;-74
2022/09/28 15:05:26;;;;;;;4.13;0.68;;;;;;;;;;5034865;28;20036;-74
2022/09/28 15:07:51;;;;;;;6.13;0.90;;;;;;;;;;5054085;28;20040;-73
2022/09/28 15:10:27;;;;;;;5.97;0.90;;;;;;;;;;5040077;28;20029;-73
2022/09/28 15:12:52;;;;;;;6.85;0.80;;;;;;;;;;5038860;28;20085;-72
2022/09/28 15:15:24;;;;;;;5.38;0.77;;;;;;;;;;5054495;28;20080;-74
2022/09/28 15:17:53;;;;;;;6.35;0.82;;;;;;;;;;5020648;28;20766;-74
2022/09/28 15:20:51;;;;;;;3.50;0.60;;;;;;;;;;5037295;28;20095;-76